sensor_id;sensor_type;location;lat;lon;timestamp;P1;durP1;ratioP1;P2;durP2;ratioP2
63320;SDS011;49449;48.800;9.534;2023-04-24T00:00:00;1.20;;;1.10;;
63320;SDS011;49449;48.800;9.534;2023-04-24T00:02:29;1.05;;;1.00;;
63320;SDS011;49449;48.800;9.534;2023-04-24T00:04:57;0.90;;;0.90;;
63320;SDS011;49449;48.800;9.534;2023-04-24T00:07:28;1.13;;;1.05;;
63320;SDS011;49449;48.800;9.534;2023-04-24T00:09:56;1.30;;;0.88;;
63320;SDS011;49449;48.800;9.534;2023-04-24T00:12:25;1.38;;;1.23;;
63320;SDS011;49449;48.800;9.534;2023-04-24T00:14:54;1.77;;;1.00;;
63320;SDS011;49449;48.800;9.534;2023-04-24T00:17:21;1.70;;;1.40;;
63320;SDS011;49449;48.800;9.534;2023-04-24T00:19:50;1.25;;;1.20;;
63320;SDS011;49449;48.800;9.534;2023-04-24T00:22:24;0.93;;;0.93;;
63320;SDS011;49449;48.800;9.534;2023-04-24T00:24:52;2.75;;;1.20;;
63320;SDS011;49449;48.800;9.534;2023-04-24T00:27:20;1.40;;;1.40;;
63320;SDS011;49449;48.800;9.534;2023-04-24T00:29:48;1.00;;;1.00;;
63320;SDS011;49449;48.800;9.534;2023-04-24T00:32:16;0.95;;;0.95;;
63320;SDS011;49449;48.800;9.534;2023-04-24T00:34:44;1.13;;;1.02;;
63320;SDS011;49449;48.800;9.534;2023-04-24T00:37:13;0.80;;;0.80;;
63320;SDS011;49449;48.800;9.534;2023-04-24T00:39:41;0.82;;;0.80;;
63320;SDS011;49449;48.800;9.534;2023-04-24T00:42:09;0.88;;;0.82;;
63320;SDS011;49449;48.800;9.534;2023-04-24T00:44:37;1.45;;;1.00;;
63320;SDS011;49449;48.800;9.534;2023-04-24T00:47:05;1.52;;;1.00;;
63320;SDS011;49449;48.800;9.534;2023-04-24T00:49:34;1.00;;;0.90;;
63320;SDS011;49449;48.800;9.534;2023-04-24T00:52:02;2.13;;;1.00;;
63320;SDS011;49449;48.800;9.534;2023-04-24T00:54:35;1.10;;;0.90;;
63320;SDS011;49449;48.800;9.534;2023-04-24T00:57:03;0.90;;;0.90;;
63320;SDS011;49449;48.800;9.534;2023-04-24T00:59:31;0.95;;;0.90;;
63320;SDS011;49449;48.800;9.534;2023-04-24T01:01:59;0.98;;;0.88;;
63320;SDS011;49449;48.800;9.534;2023-04-24T01:04:27;1.02;;;0.93;;
63320;SDS011;49449;48.800;9.534;2023-04-24T01:06:55;0.90;;;0.80;;
63320;SDS011;49449;48.800;9.534;2023-04-24T01:09:24;0.80;;;0.80;;
63320;SDS011;49449;48.800;9.534;2023-04-24T01:11:53;1.52;;;1.02;;
63320;SDS011;49449;48.800;9.534;2023-04-24T01:14:22;1.15;;;1.05;;
63320;SDS011;49449;48.800;9.534;2023-04-24T01:16:50;0.90;;;0.90;;
63320;SDS011;49449;48.800;9.534;2023-04-24T01:19:18;1.00;;;1.00;;
63320;SDS011;49449;48.800;9.534;2023-04-24T01:21:46;0.90;;;0.90;;
63320;SDS011;49449;48.800;9.534;2023-04-24T01:24:16;0.90;;;0.90;;
63320;SDS011;49449;48.800;9.534;2023-04-24T01:26:45;1.92;;;1.10;;
63320;SDS011;49449;48.800;9.534;2023-04-24T01:29:13;1.00;;;0.90;;
63320;SDS011;49449;48.800;9.534;2023-04-24T01:31:40;1.45;;;1.00;;
63320;SDS011;49449;48.800;9.534;2023-04-24T01:34:08;1.13;;;0.98;;
63320;SDS011;49449;48.800;9.534;2023-04-24T01:36:37;0.98;;;0.98;;
63320;SDS011;49449;48.800;9.534;2023-04-24T01:39:05;0.80;;;0.80;;
63320;SDS011;49449;48.800;9.534;2023-04-24T01:41:34;1.27;;;1.17;;
63320;SDS011;49449;48.800;9.534;2023-04-24T01:44:02;1.33;;;1.23;;
63320;SDS011;49449;48.800;9.534;2023-04-24T01:46:30;1.13;;;1.10;;
63320;SDS011;49449;48.800;9.534;2023-04-24T01:48:58;2.35;;;1.20;;
63320;SDS011;49449;48.800;9.534;2023-04-24T01:51:27;1.00;;;1.00;;
63320;SDS011;49449;48.800;9.534;2023-04-24T01:53:56;1.13;;;1.02;;
63320;SDS011;49449;48.800;9.534;2023-04-24T01:56:24;0.70;;;0.70;;
63320;SDS011;49449;48.800;9.534;2023-04-24T01:58:54;0.88;;;0.88;;
63320;SDS011;49449;48.800;9.534;2023-04-24T02:01:23;1.55;;;0.80;;
63320;SDS011;49449;48.800;9.534;2023-04-24T02:03:51;1.65;;;0.50;;
63320;SDS011;49449;48.800;9.534;2023-04-24T02:06:19;1.08;;;0.90;;
63320;SDS011;49449;48.800;9.534;2023-04-24T02:08:46;2.08;;;0.90;;
63320;SDS011;49449;48.800;9.534;2023-04-24T02:11:14;1.58;;;1.45;;
63320;SDS011;49449;48.800;9.534;2023-04-24T02:13:42;1.95;;;0.82;;
63320;SDS011;49449;48.800;9.534;2023-04-24T02:16:11;0.93;;;0.93;;
63320;SDS011;49449;48.800;9.534;2023-04-24T02:18:39;0.80;;;0.80;;
63320;SDS011;49449;48.800;9.534;2023-04-24T02:21:06;1.55;;;0.73;;
63320;SDS011;49449;48.800;9.534;2023-04-24T02:23:34;0.88;;;0.88;;
63320;SDS011;49449;48.800;9.534;2023-04-24T02:26:02;0.98;;;0.75;;
63320;SDS011;49449;48.800;9.534;2023-04-24T02:28:30;0.68;;;0.68;;
63320;SDS011;49449;48.800;9.534;2023-04-24T02:30:57;0.80;;;0.80;;
63320;SDS011;49449;48.800;9.534;2023-04-24T02:33:27;1.35;;;0.75;;
63320;SDS011;49449;48.800;9.534;2023-04-24T02:35:55;1.33;;;0.88;;
63320;SDS011;49449;48.800;9.534;2023-04-24T02:38:23;1.85;;;0.90;;
63320;SDS011;49449;48.800;9.534;2023-04-24T02:40:50;1.02;;;0.70;;
63320;SDS011;49449;48.800;9.534;2023-04-24T02:43:18;1.98;;;1.10;;
63320;SDS011;49449;48.800;9.534;2023-04-24T02:45:46;0.82;;;0.70;;
63320;SDS011;49449;48.800;9.534;2023-04-24T02:48:14;1.10;;;0.85;;
63320;SDS011;49449;48.800;9.534;2023-04-24T02:50:44;0.73;;;0.73;;
63320;SDS011;49449;48.800;9.534;2023-04-24T02:53:12;1.55;;;0.90;;
63320;SDS011;49449;48.800;9.534;2023-04-24T02:55:40;0.98;;;0.77;;
63320;SDS011;49449;48.800;9.534;2023-04-24T02:58:07;1.35;;;0.80;;
63320;SDS011;49449;48.800;9.534;2023-04-24T03:00:36;0.88;;;0.88;;
63320;SDS011;49449;48.800;9.534;2023-04-24T03:03:04;2.20;;;0.95;;
63320;SDS011;49449;48.800;9.534;2023-04-24T03:05:33;0.80;;;0.80;;
63320;SDS011;49449;48.800;9.534;2023-04-24T03:08:02;1.92;;;0.77;;
63320;SDS011;49449;48.800;9.534;2023-04-24T03:10:30;1.10;;;0.70;;
63320;SDS011;49449;48.800;9.534;2023-04-24T03:12:58;1.05;;;0.88;;
63320;SDS011;49449;48.800;9.534;2023-04-24T03:15:26;1.35;;;1.00;;
63320;SDS011;49449;48.800;9.534;2023-04-24T03:17:54;0.65;;;0.65;;
63320;SDS011;49449;48.800;9.534;2023-04-24T03:20:22;1.27;;;1.27;;
63320;SDS011;49449;48.800;9.534;2023-04-24T03:22:50;0.70;;;0.70;;
63320;SDS011;49449;48.800;9.534;2023-04-24T03:25:19;1.73;;;0.82;;
63320;SDS011;49449;48.800;9.534;2023-04-24T03:27:47;1.83;;;0.80;;
63320;SDS011;49449;48.800;9.534;2023-04-24T03:30:14;0.85;;;0.70;;
63320;SDS011;49449;48.800;9.534;2023-04-24T03:32:42;0.80;;;0.80;;
63320;SDS011;49449;48.800;9.534;2023-04-24T03:35:10;0.90;;;0.90;;
63320;SDS011;49449;48.800;9.534;2023-04-24T03:37:38;1.15;;;1.02;;
63320;SDS011;49449;48.800;9.534;2023-04-24T03:40:06;1.33;;;0.82;;
63320;SDS011;49449;48.800;9.534;2023-04-24T03:42:36;1.30;;;1.05;;
63320;SDS011;49449;48.800;9.534;2023-04-24T03:45:05;1.35;;;0.80;;
63320;SDS011;49449;48.800;9.534;2023-04-24T03:47:33;2.40;;;1.20;;
63320;SDS011;49449;48.800;9.534;2023-04-24T03:50:01;1.58;;;1.02;;
63320;SDS011;49449;48.800;9.534;2023-04-24T03:52:29;1.65;;;0.70;;
63320;SDS011;49449;48.800;9.534;2023-04-24T03:54:57;1.48;;;0.85;;
63320;SDS011;49449;48.800;9.534;2023-04-24T03:57:25;3.40;;;1.02;;
63320;SDS011;49449;48.800;9.534;2023-04-24T03:59:54;0.93;;;0.88;;
63320;SDS011;49449;48.800;9.534;2023-04-24T04:02:22;1.50;;;0.82;;
63320;SDS011;49449;48.800;9.534;2023-04-24T04:04:49;1.00;;;0.90;;
63320;SDS011;49449;48.800;9.534;2023-04-24T04:07:17;1.45;;;0.80;;
63320;SDS011;49449;48.800;9.534;2023-04-24T04:09:45;0.85;;;0.80;;
63320;SDS011;49449;48.800;9.534;2023-04-24T04:12:12;0.82;;;0.82;;
63320;SDS011;49449;48.800;9.534;2023-04-24T04:14:40;1.25;;;0.90;;
63320;SDS011;49449;48.800;9.534;2023-04-24T04:17:09;1.73;;;0.98;;
63320;SDS011;49449;48.800;9.534;2023-04-24T04:19:37;2.28;;;1.10;;
63320;SDS011;49449;48.800;9.534;2023-04-24T04:22:08;0.85;;;0.77;;
63320;SDS011;49449;48.800;9.534;2023-04-24T04:24:35;0.68;;;0.68;;
63320;SDS011;49449;48.800;9.534;2023-04-24T04:27:04;1.45;;;0.90;;
63320;SDS011;49449;48.800;9.534;2023-04-24T04:29:32;2.67;;;1.20;;
63320;SDS011;49449;48.800;9.534;2023-04-24T04:32:00;1.38;;;0.80;;
63320;SDS011;49449;48.800;9.534;2023-04-24T04:34:30;1.17;;;1.10;;
63320;SDS011;49449;48.800;9.534;2023-04-24T04:36:57;0.95;;;0.90;;
63320;SDS011;49449;48.800;9.534;2023-04-24T04:39:27;1.85;;;1.10;;
63320;SDS011;49449;48.800;9.534;2023-04-24T04:41:56;1.75;;;0.80;;
63320;SDS011;49449;48.800;9.534;2023-04-24T04:44:24;1.38;;;1.20;;
63320;SDS011;49449;48.800;9.534;2023-04-24T04:46:55;0.90;;;0.80;;
63320;SDS011;49449;48.800;9.534;2023-04-24T04:49:23;0.70;;;0.70;;
63320;SDS011;49449;48.800;9.534;2023-04-24T04:51:52;1.05;;;0.60;;
63320;SDS011;49449;48.800;9.534;2023-04-24T04:54:20;0.55;;;0.55;;
63320;SDS011;49449;48.800;9.534;2023-04-24T04:56:49;0.77;;;0.77;;
63320;SDS011;49449;48.800;9.534;2023-04-24T04:59:17;1.23;;;1.05;;
63320;SDS011;49449;48.800;9.534;2023-04-24T05:01:45;2.33;;;0.98;;
63320;SDS011;49449;48.800;9.534;2023-04-24T05:04:12;1.65;;;1.10;;
63320;SDS011;49449;48.800;9.534;2023-04-24T05:06:40;1.02;;;1.02;;
63320;SDS011;49449;48.800;9.534;2023-04-24T05:09:09;1.55;;;1.10;;
63320;SDS011;49449;48.800;9.534;2023-04-24T05:11:37;1.95;;;1.02;;
63320;SDS011;49449;48.800;9.534;2023-04-24T05:14:04;0.82;;;0.80;;
63320;SDS011;49449;48.800;9.534;2023-04-24T05:16:32;1.20;;;1.08;;
63320;SDS011;49449;48.800;9.534;2023-04-24T05:19:00;2.28;;;1.00;;
63320;SDS011;49449;48.800;9.534;2023-04-24T05:21:28;0.95;;;0.95;;
63320;SDS011;49449;48.800;9.534;2023-04-24T05:23:56;1.35;;;1.10;;
63320;SDS011;49449;48.800;9.534;2023-04-24T05:26:26;1.02;;;1.02;;
63320;SDS011;49449;48.800;9.534;2023-04-24T05:28:53;2.75;;;1.05;;
63320;SDS011;49449;48.800;9.534;2023-04-24T05:31:21;1.00;;;1.00;;
63320;SDS011;49449;48.800;9.534;2023-04-24T05:33:49;0.80;;;0.80;;
63320;SDS011;49449;48.800;9.534;2023-04-24T05:36:17;1.40;;;1.40;;
63320;SDS011;49449;48.800;9.534;2023-04-24T05:38:47;1.20;;;1.10;;
63320;SDS011;49449;48.800;9.534;2023-04-24T05:41:15;1.70;;;1.23;;
63320;SDS011;49449;48.800;9.534;2023-04-24T05:43:44;1.45;;;1.20;;
63320;SDS011;49449;48.800;9.534;2023-04-24T05:46:11;0.90;;;0.90;;
63320;SDS011;49449;48.800;9.534;2023-04-24T05:48:39;1.98;;;1.10;;
63320;SDS011;49449;48.800;9.534;2023-04-24T05:51:07;1.25;;;1.15;;
63320;SDS011;49449;48.800;9.534;2023-04-24T05:53:35;1.10;;;1.10;;
63320;SDS011;49449;48.800;9.534;2023-04-24T05:56:03;2.10;;;1.35;;
63320;SDS011;49449;48.800;9.534;2023-04-24T05:58:31;1.10;;;0.93;;
63320;SDS011;49449;48.800;9.534;2023-04-24T06:01:00;1.10;;;1.10;;
63320;SDS011;49449;48.800;9.534;2023-04-24T06:03:28;1.15;;;1.15;;
63320;SDS011;49449;48.800;9.534;2023-04-24T06:05:56;1.33;;;1.20;;
63320;SDS011;49449;48.800;9.534;2023-04-24T06:08:24;1.65;;;1.00;;
63320;SDS011;49449;48.800;9.534;2023-04-24T06:10:52;1.27;;;1.00;;
63320;SDS011;49449;48.800;9.534;2023-04-24T06:13:20;1.13;;;1.00;;
63320;SDS011;49449;48.800;9.534;2023-04-24T06:15:47;1.20;;;1.10;;
63320;SDS011;49449;48.800;9.534;2023-04-24T06:18:17;1.20;;;1.20;;
63320;SDS011;49449;48.800;9.534;2023-04-24T06:20:44;1.10;;;1.10;;
63320;SDS011;49449;48.800;9.534;2023-04-24T06:23:12;1.10;;;0.90;;
63320;SDS011;49449;48.800;9.534;2023-04-24T06:25:40;1.25;;;1.20;;
63320;SDS011;49449;48.800;9.534;2023-04-24T06:28:08;1.20;;;1.20;;
63320;SDS011;49449;48.800;9.534;2023-04-24T06:30:35;1.25;;;1.23;;
63320;SDS011;49449;48.800;9.534;2023-04-24T06:33:03;1.25;;;1.00;;
63320;SDS011;49449;48.800;9.534;2023-04-24T06:38:04;1.23;;;1.20;;
63320;SDS011;49449;48.800;9.534;2023-04-24T06:40:32;1.27;;;1.17;;
63320;SDS011;49449;48.800;9.534;2023-04-24T06:43:00;1.17;;;1.05;;
63320;SDS011;49449;48.800;9.534;2023-04-24T06:45:29;2.65;;;1.38;;
63320;SDS011;49449;48.800;9.534;2023-04-24T06:47:56;2.08;;;1.38;;
63320;SDS011;49449;48.800;9.534;2023-04-24T06:50:24;1.23;;;1.17;;
63320;SDS011;49449;48.800;9.534;2023-04-24T06:52:53;1.05;;;1.05;;
63320;SDS011;49449;48.800;9.534;2023-04-24T06:55:21;1.70;;;1.60;;
63320;SDS011;49449;48.800;9.534;2023-04-24T06:57:49;1.60;;;1.50;;
63320;SDS011;49449;48.800;9.534;2023-04-24T07:00:17;1.50;;;1.40;;
63320;SDS011;49449;48.800;9.534;2023-04-24T07:02:45;1.48;;;1.30;;
63320;SDS011;49449;48.800;9.534;2023-04-24T07:05:13;1.50;;;1.40;;
63320;SDS011;49449;48.800;9.534;2023-04-24T07:07:41;2.17;;;1.38;;
63320;SDS011;49449;48.800;9.534;2023-04-24T07:10:10;1.45;;;1.35;;
63320;SDS011;49449;48.800;9.534;2023-04-24T07:12:39;1.45;;;1.35;;
63320;SDS011;49449;48.800;9.534;2023-04-24T07:15:07;2.67;;;1.55;;
63320;SDS011;49449;48.800;9.534;2023-04-24T07:17:36;2.00;;;1.40;;
63320;SDS011;49449;48.800;9.534;2023-04-24T07:20:09;1.50;;;1.38;;
63320;SDS011;49449;48.800;9.534;2023-04-24T07:22:37;1.50;;;1.40;;
63320;SDS011;49449;48.800;9.534;2023-04-24T07:25:06;2.33;;;1.70;;
63320;SDS011;49449;48.800;9.534;2023-04-24T07:27:36;2.25;;;1.50;;
63320;SDS011;49449;48.800;9.534;2023-04-24T07:30:04;2.40;;;1.48;;
63320;SDS011;49449;48.800;9.534;2023-04-24T07:32:33;1.60;;;1.50;;
63320;SDS011;49449;48.800;9.534;2023-04-24T07:35:01;1.92;;;1.50;;
63320;SDS011;49449;48.800;9.534;2023-04-24T07:37:28;2.58;;;1.63;;
63320;SDS011;49449;48.800;9.534;2023-04-24T07:39:56;1.92;;;1.70;;
63320;SDS011;49449;48.800;9.534;2023-04-24T07:42:24;2.05;;;1.60;;
63320;SDS011;49449;48.800;9.534;2023-04-24T07:44:53;2.90;;;1.70;;
63320;SDS011;49449;48.800;9.534;2023-04-24T07:47:21;2.00;;;1.80;;
63320;SDS011;49449;48.800;9.534;2023-04-24T07:49:49;2.00;;;1.65;;
63320;SDS011;49449;48.800;9.534;2023-04-24T07:52:16;2.35;;;1.67;;
63320;SDS011;49449;48.800;9.534;2023-04-24T07:54:44;2.38;;;1.80;;
63320;SDS011;49449;48.800;9.534;2023-04-24T07:57:12;1.60;;;1.50;;
63320;SDS011;49449;48.800;9.534;2023-04-24T07:59:40;2.53;;;1.50;;
63320;SDS011;49449;48.800;9.534;2023-04-24T08:02:09;2.22;;;1.80;;
63320;SDS011;49449;48.800;9.534;2023-04-24T08:04:37;2.28;;;1.38;;
63320;SDS011;49449;48.800;9.534;2023-04-24T08:07:04;1.38;;;1.27;;
63320;SDS011;49449;48.800;9.534;2023-04-24T08:09:32;2.38;;;1.80;;
63320;SDS011;49449;48.800;9.534;2023-04-24T08:12:00;1.38;;;1.27;;
63320;SDS011;49449;48.800;9.534;2023-04-24T08:14:28;1.75;;;1.40;;
63320;SDS011;49449;48.800;9.534;2023-04-24T08:16:56;1.50;;;1.40;;
63320;SDS011;49449;48.800;9.534;2023-04-24T08:19:27;2.65;;;1.60;;
63320;SDS011;49449;48.800;9.534;2023-04-24T08:21:55;1.40;;;1.30;;
63320;SDS011;49449;48.800;9.534;2023-04-24T08:24:23;1.70;;;1.48;;
63320;SDS011;49449;48.800;9.534;2023-04-24T08:26:51;1.63;;;1.52;;
63320;SDS011;49449;48.800;9.534;2023-04-24T08:29:20;1.17;;;1.17;;
63320;SDS011;49449;48.800;9.534;2023-04-24T08:31:48;2.08;;;1.42;;
63320;SDS011;49449;48.800;9.534;2023-04-24T08:34:16;1.55;;;1.30;;
63320;SDS011;49449;48.800;9.534;2023-04-24T08:36:45;1.60;;;1.50;;
63320;SDS011;49449;48.800;9.534;2023-04-24T08:39:13;1.25;;;1.15;;
63320;SDS011;49449;48.800;9.534;2023-04-24T08:41:41;1.38;;;1.10;;
63320;SDS011;49449;48.800;9.534;2023-04-24T08:44:11;1.95;;;1.20;;
63320;SDS011;49449;48.800;9.534;2023-04-24T08:46:42;1.20;;;1.20;;
63320;SDS011;49449;48.800;9.534;2023-04-24T08:49:11;1.35;;;1.27;;
63320;SDS011;49449;48.800;9.534;2023-04-24T08:51:42;1.35;;;1.25;;
63320;SDS011;49449;48.800;9.534;2023-04-24T08:56:41;1.40;;;1.30;;
63320;SDS011;49449;48.800;9.534;2023-04-24T08:59:11;2.00;;;1.35;;
63320;SDS011;49449;48.800;9.534;2023-04-24T09:01:40;1.42;;;1.33;;
63320;SDS011;49449;48.800;9.534;2023-04-24T09:04:09;1.20;;;1.20;;
63320;SDS011;49449;48.800;9.534;2023-04-24T09:06:38;1.33;;;1.23;;
63320;SDS011;49449;48.800;9.534;2023-04-24T09:09:06;1.10;;;1.10;;
63320;SDS011;49449;48.800;9.534;2023-04-24T09:11:37;1.63;;;1.48;;
63320;SDS011;49449;48.800;9.534;2023-04-24T09:14:05;2.22;;;1.40;;
63320;SDS011;49449;48.800;9.534;2023-04-24T09:16:33;1.70;;;1.20;;
63320;SDS011;49449;48.800;9.534;2023-04-24T09:19:02;1.60;;;1.30;;
63320;SDS011;49449;48.800;9.534;2023-04-24T09:21:31;1.95;;;1.40;;
63320;SDS011;49449;48.800;9.534;2023-04-24T09:23:59;1.48;;;1.33;;
63320;SDS011;49449;48.800;9.534;2023-04-24T09:26:29;1.30;;;1.30;;
63320;SDS011;49449;48.800;9.534;2023-04-24T09:29:00;1.25;;;1.20;;
63320;SDS011;49449;48.800;9.534;2023-04-24T09:31:29;1.40;;;1.40;;
63320;SDS011;49449;48.800;9.534;2023-04-24T09:33:58;3.15;;;1.60;;
63320;SDS011;49449;48.800;9.534;2023-04-24T09:36:28;1.67;;;1.50;;
63320;SDS011;49449;48.800;9.534;2023-04-24T09:38:59;1.88;;;1.33;;
63320;SDS011;49449;48.800;9.534;2023-04-24T09:41:28;1.80;;;1.70;;
63320;SDS011;49449;48.800;9.534;2023-04-24T09:43:56;1.40;;;1.40;;
63320;SDS011;49449;48.800;9.534;2023-04-24T09:46:30;3.90;;;1.88;;
63320;SDS011;49449;48.800;9.534;2023-04-24T09:49:02;2.30;;;1.50;;
63320;SDS011;49449;48.800;9.534;2023-04-24T09:51:36;1.38;;;1.27;;
63320;SDS011;49449;48.800;9.534;2023-04-24T09:54:11;2.17;;;1.15;;
63320;SDS011;49449;48.800;9.534;2023-04-24T09:56:42;1.70;;;1.60;;
63320;SDS011;49449;48.800;9.534;2023-04-24T09:59:11;1.55;;;1.45;;
63320;SDS011;49449;48.800;9.534;2023-04-24T10:01:41;1.75;;;1.65;;
63320;SDS011;49449;48.800;9.534;2023-04-24T10:04:17;1.98;;;1.40;;
63320;SDS011;49449;48.800;9.534;2023-04-24T10:06:46;1.52;;;1.45;;
63320;SDS011;49449;48.800;9.534;2023-04-24T10:09:15;1.50;;;1.40;;
63320;SDS011;49449;48.800;9.534;2023-04-24T10:11:43;2.03;;;1.55;;
63320;SDS011;49449;48.800;9.534;2023-04-24T10:14:13;1.60;;;1.40;;
63320;SDS011;49449;48.800;9.534;2023-04-24T10:16:43;1.88;;;1.58;;
63320;SDS011;49449;48.800;9.534;2023-04-24T10:19:13;1.80;;;1.70;;
63320;SDS011;49449;48.800;9.534;2023-04-24T10:21:42;2.20;;;2.10;;
63320;SDS011;49449;48.800;9.534;2023-04-24T10:24:13;2.10;;;2.00;;
63320;SDS011;49449;48.800;9.534;2023-04-24T10:26:42;1.27;;;1.20;;
63320;SDS011;49449;48.800;9.534;2023-04-24T10:29:11;3.00;;;1.80;;
63320;SDS011;49449;48.800;9.534;2023-04-24T10:31:41;1.80;;;1.45;;
63320;SDS011;49449;48.800;9.534;2023-04-24T10:34:13;2.47;;;1.60;;
63320;SDS011;49449;48.800;9.534;2023-04-24T10:36:43;2.05;;;1.40;;
63320;SDS011;49449;48.800;9.534;2023-04-24T10:39:15;1.38;;;1.27;;
63320;SDS011;49449;48.800;9.534;2023-04-24T10:41:44;1.27;;;1.20;;
63320;SDS011;49449;48.800;9.534;2023-04-24T10:44:13;3.65;;;1.27;;
63320;SDS011;49449;48.800;9.534;2023-04-24T10:46:42;1.05;;;1.05;;
63320;SDS011;49449;48.800;9.534;2023-04-24T10:49:13;1.48;;;1.38;;
63320;SDS011;49449;48.800;9.534;2023-04-24T10:51:47;1.17;;;1.17;;
63320;SDS011;49449;48.800;9.534;2023-04-24T10:54:23;1.33;;;1.23;;
63320;SDS011;49449;48.800;9.534;2023-04-24T10:56:52;1.00;;;1.00;;
63320;SDS011;49449;48.800;9.534;2023-04-24T10:59:26;1.23;;;1.23;;
63320;SDS011;49449;48.800;9.534;2023-04-24T11:01:54;1.13;;;1.13;;
63320;SDS011;49449;48.800;9.534;2023-04-24T11:04:30;1.88;;;1.30;;
63320;SDS011;49449;48.800;9.534;2023-04-24T11:07:02;1.30;;;1.20;;
63320;SDS011;49449;48.800;9.534;2023-04-24T11:09:30;1.45;;;1.35;;
63320;SDS011;49449;48.800;9.534;2023-04-24T11:12:05;2.03;;;1.23;;
63320;SDS011;49449;48.800;9.534;2023-04-24T11:17:29;1.35;;;1.35;;
63320;SDS011;49449;48.800;9.534;2023-04-24T11:20:02;1.40;;;1.20;;
63320;SDS011;49449;48.800;9.534;2023-04-24T11:22:38;1.60;;;1.33;;
63320;SDS011;49449;48.800;9.534;2023-04-24T11:25:07;1.40;;;1.30;;
63320;SDS011;49449;48.800;9.534;2023-04-24T11:27:38;2.97;;;1.50;;
63320;SDS011;49449;48.800;9.534;2023-04-24T11:30:07;2.53;;;1.40;;
63320;SDS011;49449;48.800;9.534;2023-04-24T11:32:37;2.28;;;1.45;;
63320;SDS011;49449;48.800;9.534;2023-04-24T11:35:08;1.77;;;1.50;;
63320;SDS011;49449;48.800;9.534;2023-04-24T11:37:42;1.95;;;1.30;;
63320;SDS011;49449;48.800;9.534;2023-04-24T11:40:13;1.92;;;1.02;;
63320;SDS011;49449;48.800;9.534;2023-04-24T11:42:42;1.92;;;1.40;;
63320;SDS011;49449;48.800;9.534;2023-04-24T11:45:11;1.33;;;1.20;;
63320;SDS011;49449;48.800;9.534;2023-04-24T11:47:40;1.30;;;1.30;;
63320;SDS011;49449;48.800;9.534;2023-04-24T11:50:11;1.30;;;1.20;;
63320;SDS011;49449;48.800;9.534;2023-04-24T11:52:40;1.45;;;1.35;;
63320;SDS011;49449;48.800;9.534;2023-04-24T11:55:22;1.13;;;1.13;;
63320;SDS011;49449;48.800;9.534;2023-04-24T11:57:53;1.80;;;1.25;;
63320;SDS011;49449;48.800;9.534;2023-04-24T12:00:23;1.50;;;1.27;;
63320;SDS011;49449;48.800;9.534;2023-04-24T12:03:02;1.20;;;1.20;;
63320;SDS011;49449;48.800;9.534;2023-04-24T12:05:33;2.03;;;1.35;;
63320;SDS011;49449;48.800;9.534;2023-04-24T12:08:01;1.75;;;1.20;;
63320;SDS011;49449;48.800;9.534;2023-04-24T12:10:30;2.20;;;1.40;;
63320;SDS011;49449;48.800;9.534;2023-04-24T12:12:59;1.80;;;1.40;;
63320;SDS011;49449;48.800;9.534;2023-04-24T12:15:27;1.45;;;1.17;;
63320;SDS011;49449;48.800;9.534;2023-04-24T12:17:55;1.50;;;1.40;;
63320;SDS011;49449;48.800;9.534;2023-04-24T12:20:24;1.27;;;1.27;;
63320;SDS011;49449;48.800;9.534;2023-04-24T12:22:55;1.63;;;1.52;;
63320;SDS011;49449;48.800;9.534;2023-04-24T12:25:25;2.13;;;1.30;;
63320;SDS011;49449;48.800;9.534;2023-04-24T12:27:54;1.33;;;1.25;;
63320;SDS011;49449;48.800;9.534;2023-04-24T12:30:38;1.20;;;1.20;;
63320;SDS011;49449;48.800;9.534;2023-04-24T12:35:35;1.38;;;1.27;;
63320;SDS011;49449;48.800;9.534;2023-04-24T12:38:07;1.13;;;1.02;;
63320;SDS011;49449;48.800;9.534;2023-04-24T12:40:36;1.25;;;1.25;;
63320;SDS011;49449;48.800;9.534;2023-04-24T12:43:12;1.30;;;1.30;;
63320;SDS011;49449;48.800;9.534;2023-04-24T12:45:41;1.83;;;1.17;;
63320;SDS011;49449;48.800;9.534;2023-04-24T12:48:10;1.33;;;1.23;;
63320;SDS011;49449;48.800;9.534;2023-04-24T12:50:40;1.30;;;1.30;;
63320;SDS011;49449;48.800;9.534;2023-04-24T12:53:10;1.15;;;1.15;;
63320;SDS011;49449;48.800;9.534;2023-04-24T12:55:38;2.08;;;1.45;;
63320;SDS011;49449;48.800;9.534;2023-04-24T12:58:06;1.50;;;1.40;;
63320;SDS011;49449;48.800;9.534;2023-04-24T13:00:34;1.30;;;1.30;;
63320;SDS011;49449;48.800;9.534;2023-04-24T13:03:02;2.83;;;1.30;;
63320;SDS011;49449;48.800;9.534;2023-04-24T13:05:30;1.65;;;1.20;;
63320;SDS011;49449;48.800;9.534;2023-04-24T13:07:58;1.13;;;1.13;;
63320;SDS011;49449;48.800;9.534;2023-04-24T13:10:27;1.45;;;1.35;;
63320;SDS011;49449;48.800;9.534;2023-04-24T13:12:57;2.33;;;1.50;;
63320;SDS011;49449;48.800;9.534;2023-04-24T13:15:26;1.52;;;1.50;;
63320;SDS011;49449;48.800;9.534;2023-04-24T13:17:54;1.30;;;1.30;;
63320;SDS011;49449;48.800;9.534;2023-04-24T13:20:21;2.63;;;1.50;;
63320;SDS011;49449;48.800;9.534;2023-04-24T13:22:49;1.10;;;1.10;;
63320;SDS011;49449;48.800;9.534;2023-04-24T13:25:17;2.00;;;1.58;;
63320;SDS011;49449;48.800;9.534;2023-04-24T13:27:48;1.55;;;1.40;;
63320;SDS011;49449;48.800;9.534;2023-04-24T13:30:15;1.88;;;1.20;;
63320;SDS011;49449;48.800;9.534;2023-04-24T13:32:43;1.48;;;1.38;;
63320;SDS011;49449;48.800;9.534;2023-04-24T13:35:11;1.95;;;1.85;;
63320;SDS011;49449;48.800;9.534;2023-04-24T13:37:39;1.48;;;1.38;;
63320;SDS011;49449;48.800;9.534;2023-04-24T13:40:07;1.70;;;1.60;;
63320;SDS011;49449;48.800;9.534;2023-04-24T13:42:35;1.63;;;1.45;;
63320;SDS011;49449;48.800;9.534;2023-04-24T13:45:05;1.77;;;1.67;;
63320;SDS011;49449;48.800;9.534;2023-04-24T13:47:39;1.60;;;1.50;;
63320;SDS011;49449;48.800;9.534;2023-04-24T13:50:08;1.92;;;1.25;;
63320;SDS011;49449;48.800;9.534;2023-04-24T13:52:36;1.40;;;1.20;;
63320;SDS011;49449;48.800;9.534;2023-04-24T13:55:04;1.38;;;1.27;;
63320;SDS011;49449;48.800;9.534;2023-04-24T13:57:33;1.20;;;1.20;;
63320;SDS011;49449;48.800;9.534;2023-04-24T14:00:01;1.42;;;1.33;;
63320;SDS011;49449;48.800;9.534;2023-04-24T14:02:31;1.27;;;1.17;;
63320;SDS011;49449;48.800;9.534;2023-04-24T14:04:59;1.65;;;1.55;;
63320;SDS011;49449;48.800;9.534;2023-04-24T14:07:27;1.48;;;1.30;;
63320;SDS011;49449;48.800;9.534;2023-04-24T14:09:55;1.77;;;1.67;;
63320;SDS011;49449;48.800;9.534;2023-04-24T14:12:23;1.85;;;1.75;;
63320;SDS011;49449;48.800;9.534;2023-04-24T14:14:52;1.55;;;1.08;;
63320;SDS011;49449;48.800;9.534;2023-04-24T14:17:19;1.38;;;1.27;;
63320;SDS011;49449;48.800;9.534;2023-04-24T14:19:49;1.52;;;1.20;;
63320;SDS011;49449;48.800;9.534;2023-04-24T14:22:18;3.40;;;1.73;;
63320;SDS011;49449;48.800;9.534;2023-04-24T14:24:46;1.45;;;1.35;;
63320;SDS011;49449;48.800;9.534;2023-04-24T14:27:14;1.88;;;1.60;;
63320;SDS011;49449;48.800;9.534;2023-04-24T14:29:41;1.77;;;1.67;;
63320;SDS011;49449;48.800;9.534;2023-04-24T14:32:11;2.58;;;1.70;;
63320;SDS011;49449;48.800;9.534;2023-04-24T14:34:41;1.40;;;1.30;;
63320;SDS011;49449;48.800;9.534;2023-04-24T14:37:10;1.42;;;1.30;;
63320;SDS011;49449;48.800;9.534;2023-04-24T14:39:38;2.78;;;1.50;;
63320;SDS011;49449;48.800;9.534;2023-04-24T14:42:05;1.42;;;1.33;;
63320;SDS011;49449;48.800;9.534;2023-04-24T14:44:33;2.80;;;1.38;;
63320;SDS011;49449;48.800;9.534;2023-04-24T14:47:01;1.23;;;1.23;;
63320;SDS011;49449;48.800;9.534;2023-04-24T14:49:29;1.60;;;1.50;;
63320;SDS011;49449;48.800;9.534;2023-04-24T14:51:56;1.73;;;1.58;;
63320;SDS011;49449;48.800;9.534;2023-04-24T14:54:25;1.20;;;1.20;;
63320;SDS011;49449;48.800;9.534;2023-04-24T14:56:54;1.88;;;1.60;;
63320;SDS011;49449;48.800;9.534;2023-04-24T14:59:23;1.58;;;1.48;;
63320;SDS011;49449;48.800;9.534;2023-04-24T15:01:50;1.17;;;1.17;;
63320;SDS011;49449;48.800;9.534;2023-04-24T15:04:24;1.25;;;1.25;;
63320;SDS011;49449;48.800;9.534;2023-04-24T15:06:52;1.85;;;1.60;;